sensor_id;sensor_type;location;lat;lon;timestamp;pressure;altitude;pressure_sealevel;temperature;humidity
36378;BME280;22402;42.746;23.606;2022-09-13T00:00:41;93297.88;;;14.42;nan
36378;BME280;22402;42.746;23.606;2022-09-13T00:03:08;93301.53;;;14.32;nan
36378;BME280;22402;42.746;23.606;2022-09-13T00:05:34;93302.53;;;14.31;nan
36378;BME280;22402;42.746;23.606;2022-09-13T00:08:00;93300.25;;;14.28;nan
36378;BME280;22402;42.746;23.606;2022-09-13T00:10:26;93292.72;;;14.25;nan
36378;BME280;22402;42.746;23.606;2022-09-13T00:12:51;93298.78;;;14.26;nan
36378;BME280;22402;42.746;23.606;2022-09-13T00:15:17;93294.69;;;14.23;nan
36378;BME280;22402;42.746;23.606;2022-09-13T00:17:43;93302.59;;;14.15;nan
36378;BME280;22402;42.746;23.606;2022-09-13T00:20:09;93293.44;;;14.11;nan
36378;BME280;22402;42.746;23.606;2022-09-13T00:22:34;93298.69;;;14.11;nan
36378;BME280;22402;42.746;23.606;2022-09-13T00:25:01;93288.53;;;14.08;nan
36378;BME280;22402;42.746;23.606;2022-09-13T00:27:26;93288.34;;;14.09;nan
36378;BME280;22402;42.746;23.606;2022-09-13T00:29:51;93285.91;;;14.08;nan
36378;BME280;22402;42.746;23.606;2022-09-13T00:32:17;93281.69;;;13.99;nan
36378;BME280;22402;42.746;23.606;2022-09-13T00:34:42;93274.78;;;13.98;nan
36378;BME280;22402;42.746;23.606;2022-09-13T00:37:08;93286.25;;;13.97;nan
36378;BME280;22402;42.746;23.606;2022-09-13T00:39:34;93276.78;;;13.96;nan
36378;BME280;22402;42.746;23.606;2022-09-13T00:41:59;93274.84;;;13.89;nan
36378;BME280;22402;42.746;23.606;2022-09-13T00:47:37;93275.78;;;13.88;nan
36378;BME280;22402;42.746;23.606;2022-09-13T00:50:20;93278.13;;;13.83;nan
36378;BME280;22402;42.746;23.606;2022-09-13T00:53:01;93284.03;;;13.77;nan
36378;BME280;22402;42.746;23.606;2022-09-13T00:55:31;93278.13;;;13.75;nan
36378;BME280;22402;42.746;23.606;2022-09-13T00:58:04;93279.94;;;13.75;nan
36378;BME280;22402;42.746;23.606;2022-09-13T01:00:31;93283.53;;;13.74;nan
36378;BME280;22402;42.746;23.606;2022-09-13T01:03:00;93267.66;;;13.67;nan
36378;BME280;22402;42.746;23.606;2022-09-13T01:05:33;93279.44;;;13.71;nan
36378;BME280;22402;42.746;23.606;2022-09-13T01:08:01;93270.13;;;13.68;nan
36378;BME280;22402;42.746;23.606;2022-09-13T01:10:27;93274.53;;;13.68;nan
36378;BME280;22402;42.746;23.606;2022-09-13T01:15:41;93267.00;;;13.65;nan
36378;BME280;22402;42.746;23.606;2022-09-13T01:18:07;93268.00;;;13.64;nan
36378;BME280;22402;42.746;23.606;2022-09-13T01:29:25;93265.56;;;13.62;nan
36378;BME280;22402;42.746;23.606;2022-09-13T01:48:22;93258.19;;;13.58;nan
36378;BME280;22402;42.746;23.606;2022-09-13T01:51:00;93261.81;;;13.57;nan
36378;BME280;22402;42.746;23.606;2022-09-13T01:53:42;93249.19;;;13.52;nan
36378;BME280;22402;42.746;23.606;2022-09-13T01:59:12;93251.66;;;13.45;nan
36378;BME280;22402;42.746;23.606;2022-09-13T02:01:56;93254.28;;;13.45;nan
36378;BME280;22402;42.746;23.606;2022-09-13T02:04:26;93251.34;;;13.40;nan
36378;BME280;22402;42.746;23.606;2022-09-13T02:07:02;93250.38;;;13.33;nan
36378;BME280;22402;42.746;23.606;2022-09-13T02:09:33;93239.56;;;13.36;nan
36378;BME280;22402;42.746;23.606;2022-09-13T02:12:05;93245.16;;;13.33;nan
36378;BME280;22402;42.746;23.606;2022-09-13T02:14:37;93242.69;;;13.32;nan
36378;BME280;22402;42.746;23.606;2022-09-13T02:17:14;93248.91;;;13.31;nan
36378;BME280;22402;42.746;23.606;2022-09-13T02:20:02;93241.88;;;13.31;nan
36378;BME280;22402;42.746;23.606;2022-09-13T02:22:33;93240.25;;;13.30;nan
36378;BME280;22402;42.746;23.606;2022-09-13T02:25:05;93237.44;;;13.32;nan
36378;BME280;22402;42.746;23.606;2022-09-13T02:27:32;93240.72;;;13.26;nan
36378;BME280;22402;42.746;23.606;2022-09-13T02:30:02;93240.88;;;13.24;nan
36378;BME280;22402;42.746;23.606;2022-09-13T02:32:45;93243.63;;;13.22;nan
36378;BME280;22402;42.746;23.606;2022-09-13T02:35:20;93246.44;;;13.21;nan
36378;BME280;22402;42.746;23.606;2022-09-13T02:37:54;93247.59;;;13.18;nan
36378;BME280;22402;42.746;23.606;2022-09-13T02:40:25;93243.50;;;13.16;nan
36378;BME280;22402;42.746;23.606;2022-09-13T02:43:05;93243.16;;;13.11;nan
36378;BME280;22402;42.746;23.606;2022-09-13T02:48:14;93239.09;;;13.00;nan
36378;BME280;22402;42.746;23.606;2022-09-13T07:04:12;93342.91;;;15.85;nan
36378;BME280;22402;42.746;23.606;2022-09-13T08:16:25;93347.06;;;19.03;nan
36378;BME280;22402;42.746;23.606;2022-09-13T08:18:53;93340.78;;;19.04;nan
36378;BME280;22402;42.746;23.606;2022-09-13T08:21:19;93344.41;;;19.03;nan
36378;BME280;22402;42.746;23.606;2022-09-13T08:23:45;93345.84;;;18.99;nan
36378;BME280;22402;42.746;23.606;2022-09-13T08:26:14;93350.47;;;18.90;nan
36378;BME280;22402;42.746;23.606;2022-09-13T08:28:40;93339.91;;;18.83;nan
36378;BME280;22402;42.746;23.606;2022-09-13T08:31:11;93343.53;;;18.82;nan
36378;BME280;22402;42.746;23.606;2022-09-13T08:33:37;93338.34;;;19.02;nan
36378;BME280;22402;42.746;23.606;2022-09-13T08:36:03;93345.34;;;19.37;nan
36378;BME280;22402;42.746;23.606;2022-09-13T08:38:29;93333.56;;;19.52;nan
36378;BME280;22402;42.746;23.606;2022-09-13T08:41:01;93340.88;;;19.57;nan
36378;BME280;22402;42.746;23.606;2022-09-13T08:43:47;93339.69;;;19.53;nan
